Time;durP1;ratioP1;P1;durP2;ratioP2;P2;SDS_P1;SDS_P2;PMS_P1;PMS_P2;Temp;Humidity;BMP_temperature;BMP_pressure;BME280_temperature;BME280_humidity;BME280_pressure;Samples;Min_cycle;Max_cycle;Signal;HPM_P1;HPM_P2
2023/06/06 00:01:44;;;;;;;3.40;3.20;;;;;;;;;;4955111;28;20413;-68
2023/06/06 00:04:10;;;;;;;3.50;3.40;;;;;;;;;;4955381;28;20461;-69
2023/06/06 00:06:38;;;;;;;5.13;3.50;;;;;;;;;;4955025;28;20450;-69
2023/06/06 00:09:07;;;;;;;3.47;3.27;;;;;;;;;;4955512;28;20773;-68
2023/06/06 00:11:35;;;;;;;3.77;3.50;;;;;;;;;;4955037;28;20435;-69
2023/06/06 00:14:01;;;;;;;4.20;4.00;;;;;;;;;;4954903;28;20942;-68
2023/06/06 00:16:28;;;;;;;3.97;3.70;;;;;;;;;;4955160;28;20510;-68
2023/06/06 00:18:55;;;;;;;3.50;3.40;;;;;;;;;;4955944;28;20510;-68
2023/06/06 00:21:21;;;;;;;5.70;4.30;;;;;;;;;;4955152;28;20431;-69
2023/06/06 00:23:47;;;;;;;3.93;3.80;;;;;;;;;;4969793;28;20435;-68
2023/06/06 00:26:13;;;;;;;4.87;4.50;;;;;;;;;;4954879;28;20423;-68
2023/06/06 00:28:39;;;;;;;4.17;4.07;;;;;;;;;;4955642;28;20434;-68
2023/06/06 00:31:05;;;;;;;5.10;4.70;;;;;;;;;;4955137;28;20442;-68
2023/06/06 00:33:31;;;;;;;4.97;4.50;;;;;;;;;;4955038;28;20771;-68
2023/06/06 00:35:57;;;;;;;4.37;4.17;;;;;;;;;;4954642;28;20533;-68
2023/06/06 00:38:23;;;;;;;4.93;4.73;;;;;;;;;;4955046;28;20415;-69
2023/06/06 00:40:49;;;;;;;4.70;4.50;;;;;;;;;;4970317;28;20524;-69
2023/06/06 00:43:15;;;;;;;5.30;4.90;;;;;;;;;;4958957;28;20427;-69
2023/06/06 00:45:41;;;;;;;4.40;4.20;;;;;;;;;;4958853;28;20520;-68
2023/06/06 00:48:08;;;;;;;4.70;4.40;;;;;;;;;;4958866;28;20908;-69
2023/06/06 00:50:35;;;;;;;3.80;3.70;;;;;;;;;;4958753;28;20423;-68
2023/06/06 00:53:03;;;;;;;3.83;3.63;;;;;;;;;;4958502;28;20871;-69
2023/06/06 00:55:29;;;;;;;4.00;3.90;;;;;;;;;;4958622;28;20477;-69
2023/06/06 00:57:55;;;;;;;4.43;4.07;;;;;;;;;;4958398;28;20926;-69
2023/06/06 01:00:22;;;;;;;4.87;4.43;;;;;;;;;;4958403;28;20422;-68
2023/06/06 01:02:48;;;;;;;4.87;4.53;;;;;;;;;;4958531;28;20422;-69
2023/06/06 01:05:19;;;;;;;4.87;4.57;;;;;;;;;;4958456;28;20466;-68
2023/06/06 01:07:47;;;;;;;3.87;3.77;;;;;;;;;;4958538;28;20771;-69
2023/06/06 01:10:13;;;;;;;7.70;4.10;;;;;;;;;;4958379;28;20445;-68
2023/06/06 01:12:47;;;;;;;4.13;3.93;;;;;;;;;;4958109;28;20818;-69
2023/06/06 01:15:16;;;;;;;3.80;3.50;;;;;;;;;;4958253;28;20473;-69
2023/06/06 01:17:46;;;;;;;4.70;4.30;;;;;;;;;;4958315;28;20434;-69
2023/06/06 01:20:12;;;;;;;4.40;4.10;;;;;;;;;;4958207;28;20878;-68
2023/06/06 01:22:39;;;;;;;4.30;4.10;;;;;;;;;;4958472;28;20430;-68
2023/06/06 01:25:06;;;;;;;4.63;4.13;;;;;;;;;;4958101;28;20417;-68
2023/06/06 01:30:35;;;;;;;4.00;3.70;;;;;;;;;;4958091;29;20764;-68
2023/06/06 01:33:10;;;;;;;3.77;3.67;;;;;;;;;;4956839;29;20411;-68
2023/06/06 01:35:42;;;;;;;3.70;3.37;;;;;;;;;;4957881;28;20466;-68
2023/06/06 01:38:34;;;;;;;3.40;3.30;;;;;;;;;;4957620;28;20407;-69
2023/06/06 01:41:03;;;;;;;2.77;2.77;;;;;;;;;;4956555;29;20419;-68
2023/06/06 01:43:29;;;;;;;2.47;2.47;;;;;;;;;;4957826;28;20791;-69
2023/06/06 01:45:56;;;;;;;5.37;4.83;;;;;;;;;;4957508;28;20411;-68
2023/06/06 01:48:22;;;;;;;3.00;2.90;;;;;;;;;;4957491;28;20541;-68
2023/06/06 01:50:49;;;;;;;3.13;3.03;;;;;;;;;;4957699;28;20466;-68
2023/06/06 01:53:15;;;;;;;5.03;3.03;;;;;;;;;;4957640;28;20415;-68
2023/06/06 01:55:41;;;;;;;2.83;2.73;;;;;;;;;;4957245;28;20473;-68
2023/06/06 01:58:08;;;;;;;2.33;2.23;;;;;;;;;;4957924;28;20481;-68
2023/06/06 02:00:35;;;;;;;2.50;2.40;;;;;;;;;;4957832;28;20876;-69
2023/06/06 02:03:01;;;;;;;3.17;2.10;;;;;;;;;;4957482;28;20426;-69
2023/06/06 02:05:27;;;;;;;5.73;3.00;;;;;;;;;;4957423;28;20423;-69
2023/06/06 02:07:53;;;;;;;2.50;2.33;;;;;;;;;;4957228;28;20926;-68
2023/06/06 02:10:19;;;;;;;2.70;2.17;;;;;;;;;;4957393;28;20466;-68
2023/06/06 02:12:46;;;;;;;2.17;2.07;;;;;;;;;;4957102;28;20411;-68
2023/06/06 02:15:13;;;;;;;3.93;2.03;;;;;;;;;;4957158;28;20470;-68
2023/06/06 02:17:40;;;;;;;2.30;2.20;;;;;;;;;;4957348;28;20485;-69
2023/06/06 02:20:07;;;;;;;2.33;2.20;;;;;;;;;;4957062;28;20419;-68
2023/06/06 02:22:34;;;;;;;2.20;2.20;;;;;;;;;;4957002;28;20427;-68
2023/06/06 02:25:03;;;;;;;2.30;2.20;;;;;;;;;;4956867;28;20415;-69
2023/06/06 02:27:30;;;;;;;2.97;2.80;;;;;;;;;;4956799;28;20959;-69
2023/06/06 02:29:56;;;;;;;2.83;2.33;;;;;;;;;;4957034;28;20411;-69
2023/06/06 02:32:23;;;;;;;2.57;2.57;;;;;;;;;;4957007;28;20430;-68
2023/06/06 02:34:50;;;;;;;2.37;2.13;;;;;;;;;;4956608;28;20419;-68
2023/06/06 02:37:16;;;;;;;2.33;2.20;;;;;;;;;;4956862;28;20621;-68
2023/06/06 02:39:42;;;;;;;2.30;2.20;;;;;;;;;;4956566;28;20418;-69
2023/06/06 02:42:08;;;;;;;2.30;2.20;;;;;;;;;;4956879;28;20415;-68
2023/06/06 02:44:34;;;;;;;2.33;2.33;;;;;;;;;;4956530;28;20423;-69
2023/06/06 02:47:00;;;;;;;3.00;2.93;;;;;;;;;;4956315;28;20469;-68
2023/06/06 02:49:29;;;;;;;2.20;2.20;;;;;;;;;;4956711;28;20439;-68
2023/06/06 02:51:55;;;;;;;3.40;2.87;;;;;;;;;;4956385;28;20474;-68
2023/06/06 02:54:21;;;;;;;2.80;2.60;;;;;;;;;;4956592;28;20423;-68
2023/06/06 02:56:47;;;;;;;2.10;2.00;;;;;;;;;;4956199;28;20471;-69
2023/06/06 02:59:13;;;;;;;2.30;2.10;;;;;;;;;;4956486;28;20419;-68
2023/06/06 03:01:44;;;;;;;2.67;2.57;;;;;;;;;;4956134;28;20423;-69
2023/06/06 03:04:11;;;;;;;4.67;2.47;;;;;;;;;;4956011;28;20402;-69
2023/06/06 03:06:39;;;;;;;2.80;2.70;;;;;;;;;;4956272;28;20458;-68
2023/06/06 03:09:05;;;;;;;3.23;3.13;;;;;;;;;;4956271;28;20419;-68
2023/06/06 03:11:31;;;;;;;4.30;4.00;;;;;;;;;;4956264;28;20478;-68
2023/06/06 03:13:58;;;;;;;8.27;3.40;;;;;;;;;;4955939;28;20417;-68
2023/06/06 03:16:28;;;;;;;3.30;3.20;;;;;;;;;;4955849;28;20475;-68
2023/06/06 03:18:54;;;;;;;6.67;4.27;;;;;;;;;;4956090;28;20415;-69
2023/06/06 03:21:20;;;;;;;3.50;3.30;;;;;;;;;;4955782;28;20426;-68
2023/06/06 03:23:46;;;;;;;3.63;3.43;;;;;;;;;;4956009;28;20931;-68
2023/06/06 03:26:12;;;;;;;3.60;3.30;;;;;;;;;;4956708;28;20431;-68
2023/06/06 03:28:38;;;;;;;3.87;3.70;;;;;;;;;;4955689;28;20427;-69
2023/06/06 03:31:05;;;;;;;3.50;3.00;;;;;;;;;;4955723;28;20426;-69
2023/06/06 03:33:32;;;;;;;3.50;3.40;;;;;;;;;;4955630;28;20422;-69
2023/06/06 03:35:58;;;;;;;4.93;3.30;;;;;;;;;;4955497;28;20467;-69
2023/06/06 03:38:25;;;;;;;3.10;2.77;;;;;;;;;;4955680;28;20910;-69
2023/06/06 03:40:51;;;;;;;2.73;2.63;;;;;;;;;;4955501;28;20957;-68
2023/06/06 03:43:16;;;;;;;2.50;2.40;;;;;;;;;;4956011;28;20425;-69
2023/06/06 03:45:42;;;;;;;3.33;2.97;;;;;;;;;;4955454;28;20433;-69
2023/06/06 03:48:09;;;;;;;2.90;2.50;;;;;;;;;;4955190;28;20565;-68
2023/06/06 03:50:35;;;;;;;2.83;2.63;;;;;;;;;;4955554;28;20739;-69
2023/06/06 03:53:01;;;;;;;2.97;2.87;;;;;;;;;;4955589;28;20424;-68
2023/06/06 03:55:33;;;;;;;2.27;2.27;;;;;;;;;;4955442;28;20490;-68
2023/06/06 03:57:59;;;;;;;8.70;3.97;;;;;;;;;;4955269;28;20411;-68
2023/06/06 04:00:25;;;;;;;2.73;2.53;;;;;;;;;;4955707;28;20503;-68
2023/06/06 04:02:51;;;;;;;2.90;2.77;;;;;;;;;;4955213;28;20444;-69
2023/06/06 04:05:18;;;;;;;3.03;2.83;;;;;;;;;;4955051;28;20486;-69
2023/06/06 04:07:44;;;;;;;3.40;3.23;;;;;;;;;;4955331;28;20427;-68
2023/06/06 04:10:10;;;;;;;3.43;3.33;;;;;;;;;;4955346;28;20426;-68
2023/06/06 04:12:38;;;;;;;2.97;2.90;;;;;;;;;;4955180;28;20422;-68
2023/06/06 04:15:04;;;;;;;3.57;3.47;;;;;;;;;;4954514;28;20419;-69
2023/06/06 04:17:30;;;;;;;3.97;3.73;;;;;;;;;;4954853;28;20522;-68
2023/06/06 04:19:57;;;;;;;2.83;2.60;;;;;;;;;;4954816;28;20557;-68
2023/06/06 04:22:23;;;;;;;3.40;3.20;;;;;;;;;;4954833;28;20545;-69
2023/06/06 04:24:49;;;;;;;3.90;2.60;;;;;;;;;;4955046;28;20543;-68
2023/06/06 04:27:17;;;;;;;8.73;3.50;;;;;;;;;;4954768;28;20837;-68
2023/06/06 04:29:43;;;;;;;5.37;3.33;;;;;;;;;;4955037;28;20426;-69
2023/06/06 04:32:09;;;;;;;3.17;3.00;;;;;;;;;;4955097;28;20511;-69
2023/06/06 04:34:40;;;;;;;11.07;2.90;;;;;;;;;;4954942;28;20418;-68
2023/06/06 04:37:07;;;;;;;3.90;3.70;;;;;;;;;;4954762;28;20517;-68
2023/06/06 04:39:36;;;;;;;4.90;4.60;;;;;;;;;;4955124;28;20514;-68
2023/06/06 04:42:04;;;;;;;6.27;3.30;;;;;;;;;;4969504;28;20578;-69
2023/06/06 04:44:31;;;;;;;3.50;3.40;;;;;;;;;;4954601;28;20784;-69
2023/06/06 04:47:01;;;;;;;2.93;2.83;;;;;;;;;;4969190;28;20478;-69
2023/06/06 04:49:35;;;;;;;4.53;3.33;;;;;;;;;;4955026;28;20497;-68
2023/06/06 04:52:12;;;;;;;3.50;3.40;;;;;;;;;;4954843;28;20422;-68
2023/06/06 04:54:39;;;;;;;4.93;3.10;;;;;;;;;;4954763;28;20489;-69
2023/06/06 04:57:07;;;;;;;7.73;3.80;;;;;;;;;;4954447;28;20515;-68
2023/06/06 04:59:33;;;;;;;3.10;3.00;;;;;;;;;;4954462;28;20927;-69
2023/06/06 05:02:01;;;;;;;3.70;3.40;;;;;;;;;;4954738;28;20454;-68
2023/06/06 05:04:31;;;;;;;4.20;3.90;;;;;;;;;;4954402;28;20415;-69
2023/06/06 05:06:57;;;;;;;3.87;3.73;;;;;;;;;;4954283;28;20430;-69
2023/06/06 05:09:23;;;;;;;3.17;2.93;;;;;;;;;;4954458;28;20510;-68
2023/06/06 05:11:51;;;;;;;3.27;3.10;;;;;;;;;;4954628;28;20772;-69
2023/06/06 05:14:17;;;;;;;3.17;2.50;;;;;;;;;;4954331;28;20409;-69
2023/06/06 05:16:51;;;;;;;4.60;3.40;;;;;;;;;;4954427;28;20497;-68
2023/06/06 05:19:17;;;;;;;4.63;4.33;;;;;;;;;;4954354;28;20399;-68
2023/06/06 05:21:43;;;;;;;4.40;3.33;;;;;;;;;;4954609;28;20840;-69
2023/06/06 05:24:09;;;;;;;4.83;2.77;;;;;;;;;;4954263;28;20415;-69
2023/06/06 05:26:35;;;;;;;8.30;3.90;;;;;;;;;;4954744;28;20514;-69
2023/06/06 05:29:01;;;;;;;3.57;3.47;;;;;;;;;;4957846;28;20423;-68
2023/06/06 05:31:27;;;;;;;4.70;4.20;;;;;;;;;;4957750;28;20415;-69
2023/06/06 05:33:53;;;;;;;4.77;3.77;;;;;;;;;;4957651;28;20427;-69
2023/06/06 05:36:20;;;;;;;4.57;4.17;;;;;;;;;;4957415;28;20470;-69
2023/06/06 05:38:46;;;;;;;4.57;4.33;;;;;;;;;;4957638;28;20574;-69
2023/06/06 05:41:12;;;;;;;4.17;4.07;;;;;;;;;;4958135;28;20419;-68
2023/06/06 05:43:38;;;;;;;8.47;4.70;;;;;;;;;;4972338;28;20431;-69
2023/06/06 05:46:04;;;;;;;7.57;4.47;;;;;;;;;;4957478;28;20427;-69
2023/06/06 05:48:30;;;;;;;5.87;4.20;;;;;;;;;;4957168;28;20455;-68
2023/06/06 05:50:57;;;;;;;4.30;4.10;;;;;;;;;;4957623;28;20430;-68
2023/06/06 05:53:23;;;;;;;8.73;3.80;;;;;;;;;;4957298;28;20937;-69
2023/06/06 05:55:49;;;;;;;2.43;2.23;;;;;;;;;;4957401;28;20493;-69
2023/06/06 05:58:15;;;;;;;7.30;3.20;;;;;;;;;;4957799;28;20433;-68
2023/06/06 06:00:42;;;;;;;3.63;3.50;;;;;;;;;;4958058;28;20427;-68
2023/06/06 06:03:08;;;;;;;8.20;3.43;;;;;;;;;;4957199;28;20427;-68
2023/06/06 06:05:35;;;;;;;4.83;3.10;;;;;;;;;;4957015;28;20419;-68
2023/06/06 06:08:02;;;;;;;5.60;3.40;;;;;;;;;;4956390;28;20943;-69
2023/06/06 06:10:32;;;;;;;3.50;3.03;;;;;;;;;;4956976;28;20518;-68
2023/06/06 06:12:58;;;;;;;2.90;2.80;;;;;;;;;;4956385;28;20473;-68
2023/06/06 06:15:25;;;;;;;3.10;3.00;;;;;;;;;;4956961;28;20900;-68
2023/06/06 06:17:51;;;;;;;3.33;3.03;;;;;;;;;;4956858;28;20974;-68
2023/06/06 06:20:17;;;;;;;4.23;2.87;;;;;;;;;;4957286;28;20419;-68
2023/06/06 06:22:44;;;;;;;4.30;3.10;;;;;;;;;;4956702;28;20435;-68
2023/06/06 06:25:14;;;;;;;3.27;2.97;;;;;;;;;;4956732;28;20414;-68
2023/06/06 06:27:40;;;;;;;3.83;2.97;;;;;;;;;;4956677;28;20423;-69
2023/06/06 06:30:06;;;;;;;6.40;3.03;;;;;;;;;;4956545;28;20786;-68
2023/06/06 06:32:36;;;;;;;3.37;3.07;;;;;;;;;;4956509;28;20429;-68
2023/06/06 06:35:02;;;;;;;3.47;3.20;;;;;;;;;;4956442;28;20415;-69
2023/06/06 06:37:29;;;;;;;3.37;3.20;;;;;;;;;;4956600;28;20921;-68
2023/06/06 06:39:56;;;;;;;8.63;3.10;;;;;;;;;;4955903;28;20423;-68
2023/06/06 06:42:23;;;;;;;10.83;3.43;;;;;;;;;;4956375;28;20510;-69
2023/06/06 06:44:49;;;;;;;4.40;3.80;;;;;;;;;;4956503;28;20415;-68
2023/06/06 06:47:16;;;;;;;2.57;2.47;;;;;;;;;;4956085;28;20542;-68
2023/06/06 06:49:42;;;;;;;5.67;2.73;;;;;;;;;;4971358;28;20427;-68
2023/06/06 06:52:11;;;;;;;3.27;3.17;;;;;;;;;;4956620;28;20423;-68
2023/06/06 06:54:45;;;;;;;3.00;2.90;;;;;;;;;;4956065;28;20945;-68
2023/06/06 06:57:11;;;;;;;2.80;2.60;;;;;;;;;;4956020;28;20462;-68
2023/06/06 06:59:37;;;;;;;8.40;2.70;;;;;;;;;;4956255;28;20502;-68
2023/06/06 07:02:05;;;;;;;2.83;2.63;;;;;;;;;;4955903;28;20425;-69
2023/06/06 07:04:31;;;;;;;2.63;2.57;;;;;;;;;;4956205;28;20427;-69
2023/06/06 07:06:57;;;;;;;6.57;4.70;;;;;;;;;;4956128;28;20419;-68
2023/06/06 07:09:23;;;;;;;7.87;3.97;;;;;;;;;;4956143;28;20471;-69
2023/06/06 07:11:49;;;;;;;7.17;2.93;;;;;;;;;;4956081;28;20474;-68
2023/06/06 07:14:15;;;;;;;3.57;3.40;;;;;;;;;;4956012;28;20511;-69
2023/06/06 07:16:43;;;;;;;4.03;3.33;;;;;;;;;;4955668;28;20847;-69
2023/06/06 07:19:09;;;;;;;6.43;3.33;;;;;;;;;;4955491;28;20415;-69
2023/06/06 07:21:36;;;;;;;8.37;3.00;;;;;;;;;;4955645;28;20428;-68
2023/06/06 07:24:02;;;;;;;5.60;3.43;;;;;;;;;;4955870;28;20470;-69
2023/06/06 07:26:29;;;;;;;3.77;3.20;;;;;;;;;;4955535;28;20826;-70
2023/06/06 07:28:55;;;;;;;3.93;3.03;;;;;;;;;;4955597;28;20973;-68
2023/06/06 07:31:21;;;;;;;3.23;3.13;;;;;;;;;;4956101;28;20423;-68
2023/06/06 07:33:48;;;;;;;5.23;3.90;;;;;;;;;;4955539;28;20428;-69
2023/06/06 07:36:14;;;;;;;5.10;3.87;;;;;;;;;;4955546;28;20578;-68
2023/06/06 07:38:40;;;;;;;3.60;3.03;;;;;;;;;;4955466;28;20454;-69
2023/06/06 07:41:06;;;;;;;2.97;2.70;;;;;;;;;;4954939;28;20427;-69
2023/06/06 07:43:32;;;;;;;3.57;3.37;;;;;;;;;;4955211;28;20481;-69
2023/06/06 07:45:58;;;;;;;3.63;3.43;;;;;;;;;;4955309;28;20426;-69
2023/06/06 07:48:24;;;;;;;4.70;3.47;;;;;;;;;;4954898;28;20470;-69
2023/06/06 07:50:50;;;;;;;3.77;3.57;;;;;;;;;;4954869;28;20415;-69
2023/06/06 07:53:16;;;;;;;4.13;3.60;;;;;;;;;;4955444;28;20426;-69
2023/06/06 07:55:43;;;;;;;3.20;3.20;;;;;;;;;;4955357;28;20470;-68
2023/06/06 07:58:10;;;;;;;3.00;2.90;;;;;;;;;;4955156;28;20455;-69
2023/06/06 08:00:36;;;;;;;6.30;3.50;;;;;;;;;;4955344;28;20502;-69
2023/06/06 08:03:02;;;;;;;8.50;3.50;;;;;;;;;;4955295;28;20469;-69
2023/06/06 08:05:28;;;;;;;4.77;3.53;;;;;;;;;;4954771;28;20423;-69
2023/06/06 08:07:54;;;;;;;5.07;3.60;;;;;;;;;;4954949;28;20441;-69
2023/06/06 08:10:20;;;;;;;3.07;2.97;;;;;;;;;;4955001;28;20427;-69
2023/06/06 08:12:46;;;;;;;5.10;3.30;;;;;;;;;;4955363;28;20421;-69
2023/06/06 08:15:13;;;;;;;3.37;3.17;;;;;;;;;;4955112;28;20502;-69
2023/06/06 08:17:39;;;;;;;3.67;3.40;;;;;;;;;;4955099;28;20442;-69
2023/06/06 08:20:08;;;;;;;4.63;4.07;;;;;;;;;;4955081;28;20422;-68
2023/06/06 08:22:37;;;;;;;4.10;3.90;;;;;;;;;;4955056;28;20469;-69
2023/06/06 08:25:04;;;;;;;3.50;3.30;;;;;;;;;;4955039;28;20419;-69
2023/06/06 08:27:31;;;;;;;5.07;3.60;;;;;;;;;;4955043;28;20442;-68
2023/06/06 08:29:57;;;;;;;4.20;3.60;;;;;;;;;;4955036;29;20558;-68
2023/06/06 08:32:22;;;;;;;3.23;3.03;;;;;;;;;;4954873;28;20454;-68
2023/06/06 08:34:48;;;;;;;14.13;3.40;;;;;;;;;;4955075;28;20832;-68
2023/06/06 08:37:15;;;;;;;3.80;3.50;;;;;;;;;;4954533;28;20858;-68
2023/06/06 08:39:44;;;;;;;3.47;3.17;;;;;;;;;;4954784;28;20901;-68
2023/06/06 08:42:11;;;;;;;6.17;3.27;;;;;;;;;;4954802;28;20525;-68
2023/06/06 08:44:38;;;;;;;4.60;4.27;;;;;;;;;;4954588;28;20410;-68
2023/06/06 08:47:05;;;;;;;4.30;3.83;;;;;;;;;;4954885;28;20538;-68
2023/06/06 08:49:32;;;;;;;5.93;3.23;;;;;;;;;;4954441;28;20934;-68
2023/06/06 08:51:59;;;;;;;4.00;3.70;;;;;;;;;;4954560;28;20586;-69
2023/06/06 08:54:26;;;;;;;4.70;3.77;;;;;;;;;;4955016;28;20771;-68
2023/06/06 08:56:53;;;;;;;3.60;3.30;;;;;;;;;;4954606;28;20481;-68
2023/06/06 08:59:19;;;;;;;6.97;4.20;;;;;;;;;;4969403;28;20522;-68
2023/06/06 09:01:48;;;;;;;3.33;3.13;;;;;;;;;;4954591;28;20909;-68
2023/06/06 09:04:15;;;;;;;2.97;2.87;;;;;;;;;;4958061;28;20957;-68
2023/06/06 09:06:44;;;;;;;4.47;4.07;;;;;;;;;;4957912;28;20931;-68
2023/06/06 09:09:10;;;;;;;3.67;3.47;;;;;;;;;;4958155;28;20915;-68
2023/06/06 09:11:37;;;;;;;4.47;3.83;;;;;;;;;;4958025;28;20500;-68
2023/06/06 09:14:05;;;;;;;5.73;2.57;;;;;;;;;;4957956;28;20411;-69
2023/06/06 09:16:32;;;;;;;2.20;2.20;;;;;;;;;;4957967;28;20497;-68
2023/06/06 09:18:58;;;;;;;3.43;3.33;;;;;;;;;;4958104;28;20422;-68
2023/06/06 09:21:28;;;;;;;3.20;3.10;;;;;;;;;;4958268;28;20426;-69
2023/06/06 09:23:54;;;;;;;4.37;4.07;;;;;;;;;;4958198;28;20501;-68
2023/06/06 09:26:21;;;;;;;4.10;3.90;;;;;;;;;;4957885;28;20461;-69
2023/06/06 09:28:47;;;;;;;3.40;3.20;;;;;;;;;;4958109;28;20421;-68
2023/06/06 09:31:30;;;;;;;5.70;3.07;;;;;;;;;;4957817;28;20892;-69
2023/06/06 09:33:57;;;;;;;4.33;3.93;;;;;;;;;;4957941;28;20429;-68
2023/06/06 09:36:29;;;;;;;2.97;2.83;;;;;;;;;;4958073;28;20454;-68
2023/06/06 09:39:16;;;;;;;4.30;4.10;;;;;;;;;;4957626;28;20427;-68
2023/06/06 09:41:42;;;;;;;3.90;3.70;;;;;;;;;;4957907;28;20497;-69
2023/06/06 09:44:20;;;;;;;4.00;3.80;;;;;;;;;;4957794;28;20838;-68
2023/06/06 09:46:47;;;;;;;3.60;3.50;;;;;;;;;;4957391;28;20844;-68
2023/06/06 09:49:14;;;;;;;3.70;3.50;;;;;;;;;;4972282;28;20419;-68
2023/06/06 09:51:41;;;;;;;3.53;3.30;;;;;;;;;;4957500;28;20900;-68
2023/06/06 09:54:08;;;;;;;3.93;3.70;;;;;;;;;;4957317;28;20906;-68
2023/06/06 09:56:39;;;;;;;4.43;4.00;;;;;;;;;;4957141;28;20537;-68
2023/06/06 09:59:05;;;;;;;9.10;3.50;;;;;;;;;;4957566;28;20432;-68
2023/06/06 10:01:32;;;;;;;3.50;3.30;;;;;;;;;;4957497;28;20754;-68
2023/06/06 10:03:58;;;;;;;4.07;3.60;;;;;;;;;;4957278;28;20419;-68
2023/06/06 10:06:28;;;;;;;3.63;3.53;;;;;;;;;;4957139;28;20514;-69
2023/06/06 10:08:54;;;;;;;4.13;3.63;;;;;;;;;;4957400;28;20430;-69
2023/06/06 10:11:22;;;;;;;3.00;2.90;;;;;;;;;;4957097;28;20424;-69
2023/06/06 10:13:54;;;;;;;3.27;3.17;;;;;;;;;;4955995;28;20729;-69
2023/06/06 10:16:20;;;;;;;4.53;3.10;;;;;;;;;;4957931;28;20565;-68
2023/06/06 10:18:46;;;;;;;3.00;2.90;;;;;;;;;;4957206;28;20419;-68
2023/06/06 10:21:16;;;;;;;3.73;3.50;;;;;;;;;;4957177;28;20751;-69
2023/06/06 10:23:42;;;;;;;2.40;2.30;;;;;;;;;;4957177;28;20793;-69
2023/06/06 10:26:12;;;;;;;3.10;3.00;;;;;;;;;;4957318;28;20419;-68
2023/06/06 10:28:42;;;;;;;4.20;4.00;;;;;;;;;;4957002;28;20415;-69
2023/06/06 10:31:14;;;;;;;4.20;3.77;;;;;;;;;;4956633;28;20419;-70
2023/06/06 10:33:48;;;;;;;3.13;3.13;;;;;;;;;;4957046;28;20465;-68
2023/06/06 10:36:17;;;;;;;3.80;3.50;;;;;;;;;;4956804;28;20513;-68
2023/06/06 10:39:03;;;;;;;2.90;2.90;;;;;;;;;;4956605;28;20419;-68
2023/06/06 10:41:41;;;;;;;2.87;2.60;;;;;;;;;;4956500;28;20780;-69
2023/06/06 10:44:07;;;;;;;2.40;2.20;;;;;;;;;;4956550;28;20414;-68
2023/06/06 10:46:34;;;;;;;3.57;3.10;;;;;;;;;;4956101;28;20410;-68
2023/06/06 10:49:02;;;;;;;2.90;2.70;;;;;;;;;;4956367;28;20427;-69
2023/06/06 10:51:32;;;;;;;3.40;3.30;;;;;;;;;;4956656;28;20423;-68
2023/06/06 10:54:14;;;;;;;3.90;2.80;;;;;;;;;;4956532;28;20415;-70
2023/06/06 10:56:47;;;;;;;3.10;2.90;;;;;;;;;;4956056;28;20490;-69
2023/06/06 10:59:14;;;;;;;5.13;2.33;;;;;;;;;;4956453;28;20774;-69
2023/06/06 11:01:42;;;;;;;3.00;2.80;;;;;;;;;;4956399;28;20474;-69
2023/06/06 11:04:24;;;;;;;3.23;2.80;;;;;;;;;;4956363;28;20452;-69
2023/06/06 11:06:51;;;;;;;3.70;2.80;;;;;;;;;;4956886;28;20426;-68
2023/06/06 11:09:25;;;;;;;2.40;2.30;;;;;;;;;;4956367;28;20430;-69
2023/06/06 11:12:11;;;;;;;2.60;2.50;;;;;;;;;;4955948;28;20419;-70
2023/06/06 11:15:00;;;;;;;10.50;3.07;;;;;;;;;;4955803;28;20818;-68
2023/06/06 11:17:29;;;;;;;3.00;2.80;;;;;;;;;;4952920;29;20526;-70
2023/06/06 11:19:55;;;;;;;2.90;2.83;;;;;;;;;;4955813;28;20454;-68
2023/06/06 11:22:25;;;;;;;2.40;2.30;;;;;;;;;;4956301;28;20434;-69
2023/06/06 11:24:51;;;;;;;2.50;2.40;;;;;;;;;;4955280;28;20426;-69
2023/06/06 11:27:17;;;;;;;7.60;2.03;;;;;;;;;;4955753;28;20403;-69
2023/06/06 11:29:45;;;;;;;2.10;1.90;;;;;;;;;;4955654;28;20931;-69
2023/06/06 11:32:12;;;;;;;2.33;2.33;;;;;;;;;;4955584;28;20848;-69
2023/06/06 11:34:38;;;;;;;2.83;2.63;;;;;;;;;;4955534;28;20421;-68
2023/06/06 11:37:06;;;;;;;3.27;2.73;;;;;;;;;;4955408;28;20986;-68
2023/06/06 11:39:32;;;;;;;2.10;2.10;;;;;;;;;;4955671;28;20753;-69
2023/06/06 11:41:58;;;;;;;2.40;2.30;;;;;;;;;;4955688;28;20904;-69
2023/06/06 11:44:32;;;;;;;2.77;2.50;;;;;;;;;;4954862;28;20950;-68
2023/06/06 11:46:58;;;;;;;3.23;2.27;;;;;;;;;;4954818;28;20489;-68
2023/06/06 11:49:24;;;;;;;2.00;2.00;;;;;;;;;;4954884;28;20419;-68
2023/06/06 11:52:00;;;;;;;5.27;2.43;;;;;;;;;;4954854;28;20423;-69
2023/06/06 11:54:27;;;;;;;7.07;2.77;;;;;;;;;;4955470;28;20477;-70
2023/06/06 11:57:03;;;;;;;2.63;2.50;;;;;;;;;;4955377;28;20481;-68
2023/06/06 11:59:29;;;;;;;2.03;1.97;;;;;;;;;;4955200;28;20403;-69
2023/06/06 12:01:56;;;;;;;2.20;2.13;;;;;;;;;;4955313;28;20903;-69
2023/06/06 12:04:23;;;;;;;2.30;2.10;;;;;;;;;;4955008;28;20415;-68
2023/06/06 12:06:50;;;;;;;1.90;1.80;;;;;;;;;;4955211;28;20472;-69
2023/06/06 12:09:17;;;;;;;2.03;2.03;;;;;;;;;;4955041;28;20411;-70
2023/06/06 12:12:01;;;;;;;2.80;2.40;;;;;;;;;;4955267;28;20437;-72
2023/06/06 12:14:28;;;;;;;2.00;1.90;;;;;;;;;;4954874;28;20458;-68
2023/06/06 12:17:02;;;;;;;2.40;2.40;;;;;;;;;;4954701;28;20532;-68
2023/06/06 12:19:28;;;;;;;4.53;2.30;;;;;;;;;;4954885;28;20397;-68
2023/06/06 12:21:54;;;;;;;2.90;2.63;;;;;;;;;;4954505;28;20493;-70
2023/06/06 12:24:24;;;;;;;2.80;2.70;;;;;;;;;;4955026;28;20430;-71
2023/06/06 12:26:53;;;;;;;2.00;2.00;;;;;;;;;;4954657;28;20418;-68
2023/06/06 12:29:19;;;;;;;1.83;1.83;;;;;;;;;;4955412;28;20431;-70
2023/06/06 12:31:46;;;;;;;2.77;2.53;;;;;;;;;;4954119;28;20527;-69
2023/06/06 12:34:13;;;;;;;2.63;2.43;;;;;;;;;;4953985;28;20760;-68
2023/06/06 12:36:39;;;;;;;10.43;2.40;;;;;;;;;;4954476;28;20529;-69
2023/06/06 12:39:08;;;;;;;5.90;2.17;;;;;;;;;;4958202;28;20486;-70
2023/06/06 12:41:43;;;;;;;2.67;2.47;;;;;;;;;;4958859;28;20443;-68
2023/06/06 12:44:15;;;;;;;2.40;2.30;;;;;;;;;;4958881;28;20493;-69
2023/06/06 12:46:41;;;;;;;1.80;1.80;;;;;;;;;;4958787;28;20872;-68
2023/06/06 12:49:08;;;;;;;2.60;2.40;;;;;;;;;;4958778;28;20513;-70
2023/06/06 12:51:35;;;;;;;4.67;2.77;;;;;;;;;;4958628;28;20427;-69
2023/06/06 12:54:02;;;;;;;3.60;2.33;;;;;;;;;;4958684;28;20510;-69
2023/06/06 12:56:28;;;;;;;2.70;2.60;;;;;;;;;;4958504;28;20941;-70
2023/06/06 12:58:54;;;;;;;4.73;2.50;;;;;;;;;;4958913;28;20891;-70
2023/06/06 13:01:21;;;;;;;2.20;2.00;;;;;;;;;;4958443;28;20517;-69
2023/06/06 13:03:47;;;;;;;3.00;2.10;;;;;;;;;;4958183;28;20410;-70
2023/06/06 13:06:13;;;;;;;2.47;2.37;;;;;;;;;;4958142;28;20422;-69
2023/06/06 13:08:40;;;;;;;2.67;2.47;;;;;;;;;;4958411;28;20485;-69
2023/06/06 13:11:06;;;;;;;2.50;2.40;;;;;;;;;;4958332;28;20517;-69
2023/06/06 13:13:32;;;;;;;3.07;2.27;;;;;;;;;;4958006;28;20514;-69
2023/06/06 13:15:58;;;;;;;2.80;2.40;;;;;;;;;;4958128;28;20605;-68
2023/06/06 13:18:24;;;;;;;2.20;2.10;;;;;;;;;;4958294;28;20434;-71
2023/06/06 13:20:51;;;;;;;2.17;2.17;;;;;;;;;;4957862;28;20509;-71
2023/06/06 13:23:17;;;;;;;1.67;1.67;;;;;;;;;;4958184;28;20422;-71
2023/06/06 13:25:43;;;;;;;2.53;2.40;;;;;;;;;;4958732;28;20435;-70
2023/06/06 13:28:09;;;;;;;2.13;2.03;;;;;;;;;;4957768;28;20501;-70
2023/06/06 13:30:35;;;;;;;2.67;2.63;;;;;;;;;;4958000;28;20422;-70
2023/06/06 13:33:01;;;;;;;5.70;2.40;;;;;;;;;;4957957;28;20847;-70
2023/06/06 13:35:27;;;;;;;3.50;3.40;;;;;;;;;;4957832;28;20465;-69
2023/06/06 13:37:53;;;;;;;2.23;2.23;;;;;;;;;;4957621;28;20434;-70
2023/06/06 13:40:18;;;;;;;3.33;2.60;;;;;;;;;;4957608;28;20477;-69
2023/06/06 13:42:45;;;;;;;2.47;2.27;;;;;;;;;;4958307;28;20514;-70
2023/06/06 13:45:11;;;;;;;2.23;2.03;;;;;;;;;;4958194;28;20458;-69
2023/06/06 13:47:37;;;;;;;2.93;2.60;;;;;;;;;;4957119;28;20485;-71
2023/06/06 13:50:03;;;;;;;2.90;2.80;;;;;;;;;;4957348;28;20433;-70
2023/06/06 13:52:30;;;;;;;2.13;1.80;;;;;;;;;;4957319;28;20431;-69
2023/06/06 13:54:56;;;;;;;3.80;3.50;;;;;;;;;;4957424;28;20422;-72
2023/06/06 13:57:28;;;;;;;3.13;3.03;;;;;;;;;;4957171;28;20828;-69
2023/06/06 13:59:54;;;;;;;3.13;2.93;;;;;;;;;;4957573;28;20403;-70
2023/06/06 14:02:21;;;;;;;3.53;3.43;;;;;;;;;;4958148;28;20434;-69
2023/06/06 14:04:47;;;;;;;2.50;2.47;;;;;;;;;;4957983;28;20423;-70
2023/06/06 14:07:14;;;;;;;3.20;2.57;;;;;;;;;;4957171;28;20419;-69
2023/06/06 14:09:40;;;;;;;2.20;2.20;;;;;;;;;;4957314;28;20415;-70
2023/06/06 14:12:06;;;;;;;4.50;2.33;;;;;;;;;;4957257;28;20419;-71
2023/06/06 14:14:32;;;;;;;3.53;3.33;;;;;;;;;;4957057;28;20474;-68
2023/06/06 14:16:59;;;;;;;3.23;2.57;;;;;;;;;;4956750;28;20478;-68
2023/06/06 14:19:35;;;;;;;3.57;3.40;;;;;;;;;;4957048;28;20437;-70
2023/06/06 14:22:20;;;;;;;2.30;2.30;;;;;;;;;;4957094;28;20767;-70
2023/06/06 14:24:51;;;;;;;4.77;2.50;;;;;;;;;;4956799;28;20467;-70
2023/06/06 14:27:17;;;;;;;3.33;3.10;;;;;;;;;;4956607;28;20419;-69
2023/06/06 14:29:45;;;;;;;3.03;2.90;;;;;;;;;;4956765;28;20419;-69
2023/06/06 14:32:12;;;;;;;2.70;2.60;;;;;;;;;;4956500;28;20517;-68
2023/06/06 14:34:38;;;;;;;2.60;2.50;;;;;;;;;;4956782;28;20500;-69
2023/06/06 14:37:05;;;;;;;3.43;3.10;;;;;;;;;;4956997;28;20502;-69
2023/06/06 14:39:31;;;;;;;4.07;3.30;;;;;;;;;;4956702;28;20423;-68
2023/06/06 14:41:58;;;;;;;2.67;2.47;;;;;;;;;;4971521;28;20433;-65
2023/06/06 14:44:24;;;;;;;2.43;2.43;;;;;;;;;;4956617;28;20423;-67
2023/06/06 14:46:50;;;;;;;3.30;2.70;;;;;;;;;;4956501;28;20837;-66
2023/06/06 14:49:16;;;;;;;3.10;3.00;;;;;;;;;;4956528;28;20966;-59